Updated29/06/2022 11:15 
 

GeoURL
free counters
Scottish Weather Network UK Weather Network Cumulus Top Weather Sites

Peebles Weather - Shipping Forecasts

Raw Data, Raw Data Expanded


Daytime temperatures are in direct sunlight so may be higher than official air temperature values.
As with any other website, we log your IP address and browser type in the server logs for diagnostic reasons. Cookies are used to record visit time and gauges preferences. No personal information is stored or processed.

All times are in local time (GMT, or BST in summer) unless specified.

2022/06/29 09:50 EGPH 290950Z VRB03KT 9999 FEW016 BKN046 17/13 Q1007
14.2°C 0.3 mm 0.6 mm 1.2 mm 2.7 mph 6.0 mph 1008.4 hPa 81% X-Ray Solar Flare Level
Planetary K-Index
Planetary K-Index History
Station Warn Rain Snow Flood Wind Ltng Heat Cold Glob Moon Temp Rain 1h Rain Wed Rain 24h Wind 10m Gust Pressure Hum Proton Levels

m New moon Cool F1-SSE F: A: Kp:0 SSN:0

UK Shipping Forecasts

 

 

XHTML 1.1 | CSS